Terminal Aerodrome Forecast
Issued by NWS

Home | Current Version | Previous Version | Text Only | Print | Product List | Glossary On
Versions: 1 2 3 4 5 6 7 8 9 10 11 12 13 14 15 16 17 18
000
FTUS45 KABQ 291740
TAFROW
TAF
KROW 291740Z 2918/3018 10007KT P6SM FEW060 BKN100
     FM292000 08010KT P6SM VCSH SCT050 BKN090
      TEMPO 2922/3001 VRB15G25KT 5SM -TSRA BKN050CB
     FM300200 06006KT 6SM -SHRA SCT050 BKN090
     FM300600 02008KT P6SM SCT045 BKN080=

USA.gov is the U.S. government's official web portal to all federal, state and local government web resources and services.